sensor_id;sensor_type;location;lat;lon;timestamp;temperature;humidity
10538;DHT22;5317;49.048;8.468;2022-11-14T00:00:43;11.40;75.30
10538;DHT22;5317;49.048;8.468;2022-11-14T00:03:12;11.40;75.30
10538;DHT22;5317;49.048;8.468;2022-11-14T00:05:41;11.40;76.00
10538;DHT22;5317;49.048;8.468;2022-11-14T00:08:14;11.40;75.10
10538;DHT22;5317;49.048;8.468;2022-11-14T00:10:44;11.40;75.20
10538;DHT22;5317;49.048;8.468;2022-11-14T00:13:15;11.40;75.10
10538;DHT22;5317;49.048;8.468;2022-11-14T00:15:44;11.30;75.30
10538;DHT22;5317;49.048;8.468;2022-11-14T00:18:16;11.40;75.10
10538;DHT22;5317;49.048;8.468;2022-11-14T00:20:45;11.40;75.90
10538;DHT22;5317;49.048;8.468;2022-11-14T00:23:13;11.50;75.00
10538;DHT22;5317;49.048;8.468;2022-11-14T00:25:44;11.60;75.20
10538;DHT22;5317;49.048;8.468;2022-11-14T00:28:12;11.60;75.10
10538;DHT22;5317;49.048;8.468;2022-11-14T00:30:39;11.60;74.70
10538;DHT22;5317;49.048;8.468;2022-11-14T00:33:12;11.60;74.70
10538;DHT22;5317;49.048;8.468;2022-11-14T00:35:40;11.50;74.50
10538;DHT22;5317;49.048;8.468;2022-11-14T00:38:16;11.50;74.50
10538;DHT22;5317;49.048;8.468;2022-11-14T00:40:43;11.60;74.40
10538;DHT22;5317;49.048;8.468;2022-11-14T00:43:10;11.60;74.10
10538;DHT22;5317;49.048;8.468;2022-11-14T00:45:37;11.60;74.10
10538;DHT22;5317;49.048;8.468;2022-11-14T00:48:04;11.60;74.10
10538;DHT22;5317;49.048;8.468;2022-11-14T00:50:32;11.70;74.20
10538;DHT22;5317;49.048;8.468;2022-11-14T00:53:00;11.70;74.10
10538;DHT22;5317;49.048;8.468;2022-11-14T00:55:27;11.80;74.20
10538;DHT22;5317;49.048;8.468;2022-11-14T00:57:54;11.80;74.10
10538;DHT22;5317;49.048;8.468;2022-11-14T01:00:21;11.80;74.20
10538;DHT22;5317;49.048;8.468;2022-11-14T01:02:48;11.70;74.20
10538;DHT22;5317;49.048;8.468;2022-11-14T01:05:16;11.70;74.20
10538;DHT22;5317;49.048;8.468;2022-11-14T01:07:43;11.60;74.40
10538;DHT22;5317;49.048;8.468;2022-11-14T01:10:12;11.60;74.60
10538;DHT22;5317;49.048;8.468;2022-11-14T01:12:39;11.60;74.70
10538;DHT22;5317;49.048;8.468;2022-11-14T01:15:07;11.60;74.60
10538;DHT22;5317;49.048;8.468;2022-11-14T01:17:35;11.60;74.60
10538;DHT22;5317;49.048;8.468;2022-11-14T01:20:02;11.50;74.70
10538;DHT22;5317;49.048;8.468;2022-11-14T01:22:30;11.50;75.00
10538;DHT22;5317;49.048;8.468;2022-11-14T01:24:57;11.40;75.00
10538;DHT22;5317;49.048;8.468;2022-11-14T01:27:29;11.30;75.30
10538;DHT22;5317;49.048;8.468;2022-11-14T01:29:57;11.40;75.40
10538;DHT22;5317;49.048;8.468;2022-11-14T01:32:25;11.40;75.20
10538;DHT22;5317;49.048;8.468;2022-11-14T01:34:52;11.50;75.20
10538;DHT22;5317;49.048;8.468;2022-11-14T01:37:20;11.40;75.00
10538;DHT22;5317;49.048;8.468;2022-11-14T01:39:48;11.40;75.20
10538;DHT22;5317;49.048;8.468;2022-11-14T01:42:15;11.40;74.80
10538;DHT22;5317;49.048;8.468;2022-11-14T01:44:48;11.40;74.80
10538;DHT22;5317;49.048;8.468;2022-11-14T01:47:19;11.30;74.60
10538;DHT22;5317;49.048;8.468;2022-11-14T01:49:52;11.20;75.50
10538;DHT22;5317;49.048;8.468;2022-11-14T01:52:24;11.20;75.10
10538;DHT22;5317;49.048;8.468;2022-11-14T01:54:57;11.10;75.40
10538;DHT22;5317;49.048;8.468;2022-11-14T01:57:28;11.00;75.90
10538;DHT22;5317;49.048;8.468;2022-11-14T02:00:06;11.00;76.00
10538;DHT22;5317;49.048;8.468;2022-11-14T02:02:37;10.90;76.10
10538;DHT22;5317;49.048;8.468;2022-11-14T02:05:07;10.80;76.60
10538;DHT22;5317;49.048;8.468;2022-11-14T02:07:39;10.80;76.70
10538;DHT22;5317;49.048;8.468;2022-11-14T02:10:19;10.80;76.80
10538;DHT22;5317;49.048;8.468;2022-11-14T02:12:48;10.80;76.60
10538;DHT22;5317;49.048;8.468;2022-11-14T02:15:17;10.80;76.90
10538;DHT22;5317;49.048;8.468;2022-11-14T02:17:45;10.90;76.70
10538;DHT22;5317;49.048;8.468;2022-11-14T02:20:20;10.90;76.60
10538;DHT22;5317;49.048;8.468;2022-11-14T02:22:48;10.90;76.70
10538;DHT22;5317;49.048;8.468;2022-11-14T02:25:17;10.90;76.60
10538;DHT22;5317;49.048;8.468;2022-11-14T02:27:44;10.90;76.90
10538;DHT22;5317;49.048;8.468;2022-11-14T02:30:13;11.00;76.60
10538;DHT22;5317;49.048;8.468;2022-11-14T02:32:44;11.00;76.40
10538;DHT22;5317;49.048;8.468;2022-11-14T02:35:11;11.10;76.10
10538;DHT22;5317;49.048;8.468;2022-11-14T02:37:40;11.10;76.00
10538;DHT22;5317;49.048;8.468;2022-11-14T02:40:08;11.00;76.00
10538;DHT22;5317;49.048;8.468;2022-11-14T02:42:36;11.00;76.30
10538;DHT22;5317;49.048;8.468;2022-11-14T02:45:03;11.00;76.30
10538;DHT22;5317;49.048;8.468;2022-11-14T02:47:31;10.90;76.50
10538;DHT22;5317;49.048;8.468;2022-11-14T02:49:58;10.80;76.70
10538;DHT22;5317;49.048;8.468;2022-11-14T02:52:25;10.80;77.10
10538;DHT22;5317;49.048;8.468;2022-11-14T02:54:54;10.80;77.20
10538;DHT22;5317;49.048;8.468;2022-11-14T02:57:21;10.80;77.30
10538;DHT22;5317;49.048;8.468;2022-11-14T02:59:48;10.80;77.50
10538;DHT22;5317;49.048;8.468;2022-11-14T03:02:15;10.60;77.30
10538;DHT22;5317;49.048;8.468;2022-11-14T03:04:42;10.60;77.90
10538;DHT22;5317;49.048;8.468;2022-11-14T03:07:09;10.60;78.00
10538;DHT22;5317;49.048;8.468;2022-11-14T03:09:37;10.60;78.00
10538;DHT22;5317;49.048;8.468;2022-11-14T03:12:05;10.50;77.90
10538;DHT22;5317;49.048;8.468;2022-11-14T03:14:33;10.50;78.10
10538;DHT22;5317;49.048;8.468;2022-11-14T03:17:00;10.40;78.20
10538;DHT22;5317;49.048;8.468;2022-11-14T03:19:27;10.30;78.30
10538;DHT22;5317;49.048;8.468;2022-11-14T03:21:54;10.30;78.70
10538;DHT22;5317;49.048;8.468;2022-11-14T03:24:21;10.20;78.80
10538;DHT22;5317;49.048;8.468;2022-11-14T03:26:48;10.10;78.90
10538;DHT22;5317;49.048;8.468;2022-11-14T03:29:17;10.10;79.00
10538;DHT22;5317;49.048;8.468;2022-11-14T03:31:46;10.20;79.20
10538;DHT22;5317;49.048;8.468;2022-11-14T03:34:14;10.20;78.70
10538;DHT22;5317;49.048;8.468;2022-11-14T03:36:41;10.20;78.90
10538;DHT22;5317;49.048;8.468;2022-11-14T03:39:08;10.20;78.60
10538;DHT22;5317;49.048;8.468;2022-11-14T03:41:35;10.10;78.70
10538;DHT22;5317;49.048;8.468;2022-11-14T03:44:03;10.10;79.10
10538;DHT22;5317;49.048;8.468;2022-11-14T03:46:31;10.00;79.10
10538;DHT22;5317;49.048;8.468;2022-11-14T03:48:58;10.00;79.10
10538;DHT22;5317;49.048;8.468;2022-11-14T03:51:26;10.10;79.20
10538;DHT22;5317;49.048;8.468;2022-11-14T03:53:53;10.20;79.10
10538;DHT22;5317;49.048;8.468;2022-11-14T03:56:20;10.20;78.90
10538;DHT22;5317;49.048;8.468;2022-11-14T03:58:47;10.30;78.40
10538;DHT22;5317;49.048;8.468;2022-11-14T04:01:14;10.30;78.90
10538;DHT22;5317;49.048;8.468;2022-11-14T04:03:43;10.40;78.20
10538;DHT22;5317;49.048;8.468;2022-11-14T04:06:10;10.50;77.90
10538;DHT22;5317;49.048;8.468;2022-11-14T04:08:39;10.50;77.50
10538;DHT22;5317;49.048;8.468;2022-11-14T04:11:06;10.60;76.90
10538;DHT22;5317;49.048;8.468;2022-11-14T04:13:33;10.60;76.70
10538;DHT22;5317;49.048;8.468;2022-11-14T04:16:01;10.60;76.50
10538;DHT22;5317;49.048;8.468;2022-11-14T04:18:28;10.60;76.60
10538;DHT22;5317;49.048;8.468;2022-11-14T04:20:56;10.60;76.60
10538;DHT22;5317;49.048;8.468;2022-11-14T04:23:24;10.60;76.50
10538;DHT22;5317;49.048;8.468;2022-11-14T04:25:51;10.60;76.30
10538;DHT22;5317;49.048;8.468;2022-11-14T04:28:18;10.70;76.60
10538;DHT22;5317;49.048;8.468;2022-11-14T04:30:46;10.70;76.50
10538;DHT22;5317;49.048;8.468;2022-11-14T04:33:13;10.60;76.00
10538;DHT22;5317;49.048;8.468;2022-11-14T04:35:40;10.60;76.40
10538;DHT22;5317;49.048;8.468;2022-11-14T04:38:08;10.60;76.50
10538;DHT22;5317;49.048;8.468;2022-11-14T04:40:36;10.70;76.30
10538;DHT22;5317;49.048;8.468;2022-11-14T04:43:03;10.80;76.00
10538;DHT22;5317;49.048;8.468;2022-11-14T04:45:30;10.80;75.30
10538;DHT22;5317;49.048;8.468;2022-11-14T04:47:57;10.80;74.70
10538;DHT22;5317;49.048;8.468;2022-11-14T04:50:24;10.80;74.30
10538;DHT22;5317;49.048;8.468;2022-11-14T04:52:51;10.80;74.20
10538;DHT22;5317;49.048;8.468;2022-11-14T04:55:20;10.80;73.90
10538;DHT22;5317;49.048;8.468;2022-11-14T04:57:47;10.80;73.80
10538;DHT22;5317;49.048;8.468;2022-11-14T05:00:20;10.80;73.30
10538;DHT22;5317;49.048;8.468;2022-11-14T05:02:47;10.70;73.40
10538;DHT22;5317;49.048;8.468;2022-11-14T05:05:15;10.70;73.80
10538;DHT22;5317;49.048;8.468;2022-11-14T05:07:42;10.60;73.00
10538;DHT22;5317;49.048;8.468;2022-11-14T05:14:05;10.30;73.70
10538;DHT22;5317;49.048;8.468;2022-11-14T05:16:32;10.20;74.80
10538;DHT22;5317;49.048;8.468;2022-11-14T05:18:59;10.20;74.80
10538;DHT22;5317;49.048;8.468;2022-11-14T05:21:26;10.30;74.70
10538;DHT22;5317;49.048;8.468;2022-11-14T05:23:53;10.30;74.60
10538;DHT22;5317;49.048;8.468;2022-11-14T05:26:22;10.30;74.70
10538;DHT22;5317;49.048;8.468;2022-11-14T05:28:49;10.30;74.70
10538;DHT22;5317;49.048;8.468;2022-11-14T05:31:17;10.40;74.50
10538;DHT22;5317;49.048;8.468;2022-11-14T05:33:45;10.40;74.00
10538;DHT22;5317;49.048;8.468;2022-11-14T05:36:14;10.40;73.90
10538;DHT22;5317;49.048;8.468;2022-11-14T05:38:42;10.40;73.90
10538;DHT22;5317;49.048;8.468;2022-11-14T05:41:11;10.40;74.40
10538;DHT22;5317;49.048;8.468;2022-11-14T05:43:40;10.40;73.70
10538;DHT22;5317;49.048;8.468;2022-11-14T05:46:09;10.50;74.00
10538;DHT22;5317;49.048;8.468;2022-11-14T05:48:40;10.50;73.90
10538;DHT22;5317;49.048;8.468;2022-11-14T05:51:10;10.40;73.60
10538;DHT22;5317;49.048;8.468;2022-11-14T05:53:39;10.50;73.50
10538;DHT22;5317;49.048;8.468;2022-11-14T05:56:09;10.50;73.70
10538;DHT22;5317;49.048;8.468;2022-11-14T05:58:38;10.50;73.80
10538;DHT22;5317;49.048;8.468;2022-11-14T06:01:07;10.50;73.80
10538;DHT22;5317;49.048;8.468;2022-11-14T06:03:37;10.60;73.50
10538;DHT22;5317;49.048;8.468;2022-11-14T06:06:09;10.60;73.40
10538;DHT22;5317;49.048;8.468;2022-11-14T06:08:39;10.60;73.30
10538;DHT22;5317;49.048;8.468;2022-11-14T06:11:08;10.50;73.00
10538;DHT22;5317;49.048;8.468;2022-11-14T06:13:37;10.50;73.00
10538;DHT22;5317;49.048;8.468;2022-11-14T06:16:06;10.60;73.00
10538;DHT22;5317;49.048;8.468;2022-11-14T06:18:36;10.50;73.00
10538;DHT22;5317;49.048;8.468;2022-11-14T06:21:06;10.50;73.10
10538;DHT22;5317;49.048;8.468;2022-11-14T06:23:37;10.50;73.00
10538;DHT22;5317;49.048;8.468;2022-11-14T06:26:06;10.50;73.30
10538;DHT22;5317;49.048;8.468;2022-11-14T06:28:34;10.50;73.10
10538;DHT22;5317;49.048;8.468;2022-11-14T06:31:03;10.50;73.20
10538;DHT22;5317;49.048;8.468;2022-11-14T06:33:33;10.40;73.10
10538;DHT22;5317;49.048;8.468;2022-11-14T06:36:05;10.40;73.80
10538;DHT22;5317;49.048;8.468;2022-11-14T06:38:35;10.40;73.10
10538;DHT22;5317;49.048;8.468;2022-11-14T06:41:05;10.30;73.00
10538;DHT22;5317;49.048;8.468;2022-11-14T06:43:33;10.30;73.10
10538;DHT22;5317;49.048;8.468;2022-11-14T06:46:01;10.30;73.20
10538;DHT22;5317;49.048;8.468;2022-11-14T06:48:29;10.20;73.20
10538;DHT22;5317;49.048;8.468;2022-11-14T06:50:57;10.20;73.40
10538;DHT22;5317;49.048;8.468;2022-11-14T06:53:28;10.10;73.30
10538;DHT22;5317;49.048;8.468;2022-11-14T06:55:58;10.10;73.50
10538;DHT22;5317;49.048;8.468;2022-11-14T06:58:27;10.10;73.60
10538;DHT22;5317;49.048;8.468;2022-11-14T07:00:55;10.00;73.60
10538;DHT22;5317;49.048;8.468;2022-11-14T07:03:28;10.10;73.80
10538;DHT22;5317;49.048;8.468;2022-11-14T07:05:56;10.00;73.70
10538;DHT22;5317;49.048;8.468;2022-11-14T07:08:25;10.00;73.80
10538;DHT22;5317;49.048;8.468;2022-11-14T07:10:52;10.00;74.00
10538;DHT22;5317;49.048;8.468;2022-11-14T07:13:19;10.00;74.10
10538;DHT22;5317;49.048;8.468;2022-11-14T07:15:50;10.00;73.90
10538;DHT22;5317;49.048;8.468;2022-11-14T07:18:18;10.00;73.90
10538;DHT22;5317;49.048;8.468;2022-11-14T07:20:46;10.00;74.10
10538;DHT22;5317;49.048;8.468;2022-11-14T07:23:14;10.00;74.90
10538;DHT22;5317;49.048;8.468;2022-11-14T07:25:42;10.00;74.40
10538;DHT22;5317;49.048;8.468;2022-11-14T07:28:10;10.00;74.50
10538;DHT22;5317;49.048;8.468;2022-11-14T07:30:37;10.10;74.40
10538;DHT22;5317;49.048;8.468;2022-11-14T07:33:05;10.10;74.20
10538;DHT22;5317;49.048;8.468;2022-11-14T07:35:32;10.20;74.20
10538;DHT22;5317;49.048;8.468;2022-11-14T07:38:03;10.20;74.40
10538;DHT22;5317;49.048;8.468;2022-11-14T07:40:30;10.30;75.20
10538;DHT22;5317;49.048;8.468;2022-11-14T07:42:59;10.30;74.70
10538;DHT22;5317;49.048;8.468;2022-11-14T07:45:28;10.40;74.90
10538;DHT22;5317;49.048;8.468;2022-11-14T07:47:58;10.40;74.90
10538;DHT22;5317;49.048;8.468;2022-11-14T07:50:27;10.40;75.00
10538;DHT22;5317;49.048;8.468;2022-11-14T07:52:56;10.40;75.20
10538;DHT22;5317;49.048;8.468;2022-11-14T07:55:23;10.50;75.30
10538;DHT22;5317;49.048;8.468;2022-11-14T07:57:52;10.50;75.40
10538;DHT22;5317;49.048;8.468;2022-11-14T08:00:21;10.50;74.90
10538;DHT22;5317;49.048;8.468;2022-11-14T08:02:49;10.60;74.50
10538;DHT22;5317;49.048;8.468;2022-11-14T08:05:16;10.60;74.60
10538;DHT22;5317;49.048;8.468;2022-11-14T08:07:44;10.70;75.20
10538;DHT22;5317;49.048;8.468;2022-11-14T08:10:11;10.70;74.40
10538;DHT22;5317;49.048;8.468;2022-11-14T08:12:39;10.80;74.50
10538;DHT22;5317;49.048;8.468;2022-11-14T08:15:09;10.80;74.40
10538;DHT22;5317;49.048;8.468;2022-11-14T08:17:39;10.90;74.50
10538;DHT22;5317;49.048;8.468;2022-11-14T08:20:07;10.90;74.20
10538;DHT22;5317;49.048;8.468;2022-11-14T08:22:36;10.90;74.00
10538;DHT22;5317;49.048;8.468;2022-11-14T08:25:05;11.00;73.60
10538;DHT22;5317;49.048;8.468;2022-11-14T08:27:32;11.00;73.50
10538;DHT22;5317;49.048;8.468;2022-11-14T08:30:00;11.00;73.80
10538;DHT22;5317;49.048;8.468;2022-11-14T08:32:27;11.00;73.90
10538;DHT22;5317;49.048;8.468;2022-11-14T08:34:55;11.00;73.80
10538;DHT22;5317;49.048;8.468;2022-11-14T08:37:23;11.00;73.40
10538;DHT22;5317;49.048;8.468;2022-11-14T08:39:50;11.00;73.30
10538;DHT22;5317;49.048;8.468;2022-11-14T08:42:17;11.00;73.30
10538;DHT22;5317;49.048;8.468;2022-11-14T08:44:44;11.00;72.90
10538;DHT22;5317;49.048;8.468;2022-11-14T08:47:12;11.00;73.30
10538;DHT22;5317;49.048;8.468;2022-11-14T08:49:39;11.00;73.40
10538;DHT22;5317;49.048;8.468;2022-11-14T08:52:08;11.10;73.60
10538;DHT22;5317;49.048;8.468;2022-11-14T08:54:35;11.10;73.60
10538;DHT22;5317;49.048;8.468;2022-11-14T08:57:03;11.10;73.40
10538;DHT22;5317;49.048;8.468;2022-11-14T08:59:31;11.10;73.50
10538;DHT22;5317;49.048;8.468;2022-11-14T09:01:58;11.10;73.80
10538;DHT22;5317;49.048;8.468;2022-11-14T09:04:26;11.10;73.60
10538;DHT22;5317;49.048;8.468;2022-11-14T09:06:53;11.10;73.50
10538;DHT22;5317;49.048;8.468;2022-11-14T09:09:21;11.20;73.50
10538;DHT22;5317;49.048;8.468;2022-11-14T09:11:48;11.10;73.20
10538;DHT22;5317;49.048;8.468;2022-11-14T09:14:16;11.20;73.60
10538;DHT22;5317;49.048;8.468;2022-11-14T09:16:45;11.20;73.60
10538;DHT22;5317;49.048;8.468;2022-11-14T09:19:13;11.30;73.80
10538;DHT22;5317;49.048;8.468;2022-11-14T09:21:41;11.30;73.60
10538;DHT22;5317;49.048;8.468;2022-11-14T09:24:09;11.40;73.80
10538;DHT22;5317;49.048;8.468;2022-11-14T09:26:37;11.40;73.30
10538;DHT22;5317;49.048;8.468;2022-11-14T09:29:04;11.40;73.20
10538;DHT22;5317;49.048;8.468;2022-11-14T09:31:33;11.50;73.20
10538;DHT22;5317;49.048;8.468;2022-11-14T09:34:00;11.50;72.90
10538;DHT22;5317;49.048;8.468;2022-11-14T09:36:27;11.50;73.60
10538;DHT22;5317;49.048;8.468;2022-11-14T09:38:54;11.50;72.80
10538;DHT22;5317;49.048;8.468;2022-11-14T09:41:23;11.50;72.80
10538;DHT22;5317;49.048;8.468;2022-11-14T09:44:20;11.50;72.80
10538;DHT22;5317;49.048;8.468;2022-11-14T09:47:01;11.60;73.20
10538;DHT22;5317;49.048;8.468;2022-11-14T09:49:34;11.60;72.80
10538;DHT22;5317;49.048;8.468;2022-11-14T09:52:11;11.60;72.60
10538;DHT22;5317;49.048;8.468;2022-11-14T09:54:52;11.60;72.40
10538;DHT22;5317;49.048;8.468;2022-11-14T09:57:22;11.60;72.00
10538;DHT22;5317;49.048;8.468;2022-11-14T09:59:52;11.60;72.30
10538;DHT22;5317;49.048;8.468;2022-11-14T10:02:36;11.60;72.70
10538;DHT22;5317;49.048;8.468;2022-11-14T10:05:45;11.60;72.50
10538;DHT22;5317;49.048;8.468;2022-11-14T10:08:48;11.70;72.80
10538;DHT22;5317;49.048;8.468;2022-11-14T10:11:32;11.70;73.80
10538;DHT22;5317;49.048;8.468;2022-11-14T10:14:27;11.70;73.00
10538;DHT22;5317;49.048;8.468;2022-11-14T10:17:17;11.70;73.00
10538;DHT22;5317;49.048;8.468;2022-11-14T10:19:59;11.70;73.20
10538;DHT22;5317;49.048;8.468;2022-11-14T10:22:48;11.80;73.40
10538;DHT22;5317;49.048;8.468;2022-11-14T10:25:32;11.80;73.30
10538;DHT22;5317;49.048;8.468;2022-11-14T10:28:28;11.80;73.20
10538;DHT22;5317;49.048;8.468;2022-11-14T10:31:25;11.80;73.20
10538;DHT22;5317;49.048;8.468;2022-11-14T10:34:07;11.90;73.10
10538;DHT22;5317;49.048;8.468;2022-11-14T10:36:46;11.90;73.00
10538;DHT22;5317;49.048;8.468;2022-11-14T10:39:23;11.90;72.90
10538;DHT22;5317;49.048;8.468;2022-11-14T10:42:01;11.90;72.90
10538;DHT22;5317;49.048;8.468;2022-11-14T10:44:40;11.90;73.00
10538;DHT22;5317;49.048;8.468;2022-11-14T10:47:17;11.90;73.20
10538;DHT22;5317;49.048;8.468;2022-11-14T10:49:53;11.90;73.80
10538;DHT22;5317;49.048;8.468;2022-11-14T10:52:37;11.90;73.20
10538;DHT22;5317;49.048;8.468;2022-11-14T10:55:14;11.90;73.30
10538;DHT22;5317;49.048;8.468;2022-11-14T10:57:44;12.00;73.50
10538;DHT22;5317;49.048;8.468;2022-11-14T11:00:14;11.90;73.30
10538;DHT22;5317;49.048;8.468;2022-11-14T11:02:49;12.00;73.20
10538;DHT22;5317;49.048;8.468;2022-11-14T11:05:21;11.90;72.80
10538;DHT22;5317;49.048;8.468;2022-11-14T11:07:51;12.00;72.40
10538;DHT22;5317;49.048;8.468;2022-11-14T11:10:38;11.90;72.70
10538;DHT22;5317;49.048;8.468;2022-11-14T11:13:31;11.90;72.70
10538;DHT22;5317;49.048;8.468;2022-11-14T11:16:02;11.90;73.20
10538;DHT22;5317;49.048;8.468;2022-11-14T11:18:32;11.90;72.70
10538;DHT22;5317;49.048;8.468;2022-11-14T11:21:04;11.90;72.50
10538;DHT22;5317;49.048;8.468;2022-11-14T11:23:33;11.80;72.60
10538;DHT22;5317;49.048;8.468;2022-11-14T11:26:05;11.70;72.60
10538;DHT22;5317;49.048;8.468;2022-11-14T11:28:35;11.60;72.90
10538;DHT22;5317;49.048;8.468;2022-11-14T11:31:10;11.60;73.30
10538;DHT22;5317;49.048;8.468;2022-11-14T11:33:38;11.60;73.30
10538;DHT22;5317;49.048;8.468;2022-11-14T11:36:14;11.60;73.30
10538;DHT22;5317;49.048;8.468;2022-11-14T11:38:44;11.50;73.00
10538;DHT22;5317;49.048;8.468;2022-11-14T11:41:22;11.60;73.60
10538;DHT22;5317;49.048;8.468;2022-11-14T11:43:56;11.60;73.10
10538;DHT22;5317;49.048;8.468;2022-11-14T11:46:31;11.60;73.40
10538;DHT22;5317;49.048;8.468;2022-11-14T11:49:12;11.70;73.70
10538;DHT22;5317;49.048;8.468;2022-11-14T11:51:46;11.70;74.00
10538;DHT22;5317;49.048;8.468;2022-11-14T11:54:19;11.70;73.70
10538;DHT22;5317;49.048;8.468;2022-11-14T11:56:52;11.80;73.80
10538;DHT22;5317;49.048;8.468;2022-11-14T11:59:29;11.80;73.80
10538;DHT22;5317;49.048;8.468;2022-11-14T12:02:16;11.80;73.80
10538;DHT22;5317;49.048;8.468;2022-11-14T12:04:50;11.90;73.80
10538;DHT22;5317;49.048;8.468;2022-11-14T12:07:22;11.90;73.30
10538;DHT22;5317;49.048;8.468;2022-11-14T12:09:58;11.90;73.70
10538;DHT22;5317;49.048;8.468;2022-11-14T12:12:48;12.00;73.30
10538;DHT22;5317;49.048;8.468;2022-11-14T12:15:41;12.10;73.10
10538;DHT22;5317;49.048;8.468;2022-11-14T12:21:48;12.30;72.90
10538;DHT22;5317;49.048;8.468;2022-11-14T12:24:49;12.30;72.20
10538;DHT22;5317;49.048;8.468;2022-11-14T12:27:41;13.00;71.80
10538;DHT22;5317;49.048;8.468;2022-11-14T12:30:26;13.30;70.30
10538;DHT22;5317;49.048;8.468;2022-11-14T12:32:57;13.40;69.60
10538;DHT22;5317;49.048;8.468;2022-11-14T12:35:29;13.50;69.20
10538;DHT22;5317;49.048;8.468;2022-11-14T12:38:00;13.50;69.20
10538;DHT22;5317;49.048;8.468;2022-11-14T12:40:33;13.50;68.80
10538;DHT22;5317;49.048;8.468;2022-11-14T12:43:22;13.40;68.90
10538;DHT22;5317;49.048;8.468;2022-11-14T12:46:02;13.50;68.90
10538;DHT22;5317;49.048;8.468;2022-11-14T12:48:35;14.00;68.80
10538;DHT22;5317;49.048;8.468;2022-11-14T12:51:05;14.00;67.30
10538;DHT22;5317;49.048;8.468;2022-11-14T12:53:52;14.00;67.70
10538;DHT22;5317;49.048;8.468;2022-11-14T12:56:45;14.60;67.50
10538;DHT22;5317;49.048;8.468;2022-11-14T12:59:29;15.20;64.70
10538;DHT22;5317;49.048;8.468;2022-11-14T13:02:38;15.30;64.20
10538;DHT22;5317;49.048;8.468;2022-11-14T13:08:29;15.30;64.50
10538;DHT22;5317;49.048;8.468;2022-11-14T13:11:31;15.00;64.10
10538;DHT22;5317;49.048;8.468;2022-11-14T13:14:16;14.80;64.30
10538;DHT22;5317;49.048;8.468;2022-11-14T13:17:09;14.70;65.40
10538;DHT22;5317;49.048;8.468;2022-11-14T13:20:24;14.50;65.20
10538;DHT22;5317;49.048;8.468;2022-11-14T13:26:46;14.20;66.50
10538;DHT22;5317;49.048;8.468;2022-11-14T13:32:53;14.00;67.50
10538;DHT22;5317;49.048;8.468;2022-11-14T13:35:29;13.80;67.60
10538;DHT22;5317;49.048;8.468;2022-11-14T13:38:32;13.80;68.20
10538;DHT22;5317;49.048;8.468;2022-11-14T13:41:50;13.80;68.50
10538;DHT22;5317;49.048;8.468;2022-11-14T13:45:02;13.70;69.10
10538;DHT22;5317;49.048;8.468;2022-11-14T13:48:20;13.60;68.70
10538;DHT22;5317;49.048;8.468;2022-11-14T13:51:04;13.60;69.20
10538;DHT22;5317;49.048;8.468;2022-11-14T13:53:38;13.60;69.00
10538;DHT22;5317;49.048;8.468;2022-11-14T13:56:16;13.60;69.10
10538;DHT22;5317;49.048;8.468;2022-11-14T14:02:35;13.80;69.90
10538;DHT22;5317;49.048;8.468;2022-11-14T14:05:27;13.80;69.60
10538;DHT22;5317;49.048;8.468;2022-11-14T14:08:25;13.80;69.30
10538;DHT22;5317;49.048;8.468;2022-11-14T14:11:15;13.80;69.40
10538;DHT22;5317;49.048;8.468;2022-11-14T14:14:01;13.80;68.90
10538;DHT22;5317;49.048;8.468;2022-11-14T14:16:43;13.80;69.00
10538;DHT22;5317;49.048;8.468;2022-11-14T14:19:33;13.90;69.50
10538;DHT22;5317;49.048;8.468;2022-11-14T14:22:16;13.90;69.40
10538;DHT22;5317;49.048;8.468;2022-11-14T14:24:53;13.90;69.50
10538;DHT22;5317;49.048;8.468;2022-11-14T14:27:31;13.90;69.70
10538;DHT22;5317;49.048;8.468;2022-11-14T14:30:08;13.90;69.70
10538;DHT22;5317;49.048;8.468;2022-11-14T14:32:38;13.90;70.10
10538;DHT22;5317;49.048;8.468;2022-11-14T14:35:25;13.90;70.10
10538;DHT22;5317;49.048;8.468;2022-11-14T14:37:54;13.90;69.70
10538;DHT22;5317;49.048;8.468;2022-11-14T14:40:24;13.90;69.40
10538;DHT22;5317;49.048;8.468;2022-11-14T14:42:54;13.90;69.70
10538;DHT22;5317;49.048;8.468;2022-11-14T14:45:23;13.90;69.20
10538;DHT22;5317;49.048;8.468;2022-11-14T14:47:59;13.90;69.40
10538;DHT22;5317;49.048;8.468;2022-11-14T14:50:34;13.90;69.80
10538;DHT22;5317;49.048;8.468;2022-11-14T14:53:06;14.00;70.40
10538;DHT22;5317;49.048;8.468;2022-11-14T14:55:34;14.00;70.40
10538;DHT22;5317;49.048;8.468;2022-11-14T14:58:12;13.90;70.10
10538;DHT22;5317;49.048;8.468;2022-11-14T15:00:50;14.00;70.40
10538;DHT22;5317;49.048;8.468;2022-11-14T15:03:20;14.00;70.20
10538;DHT22;5317;49.048;8.468;2022-11-14T15:05:56;14.00;70.00
10538;DHT22;5317;49.048;8.468;2022-11-14T15:08:25;14.00;70.00
10538;DHT22;5317;49.048;8.468;2022-11-14T15:10:57;14.00;70.00
10538;DHT22;5317;49.048;8.468;2022-11-14T15:13:27;14.00;70.20
10538;DHT22;5317;49.048;8.468;2022-11-14T15:15:59;14.00;70.30
10538;DHT22;5317;49.048;8.468;2022-11-14T15:18:30;14.00;71.00
10538;DHT22;5317;49.048;8.468;2022-11-14T15:21:07;14.00;71.10
10538;DHT22;5317;49.048;8.468;2022-11-14T15:23:37;14.00;71.30
10538;DHT22;5317;49.048;8.468;2022-11-14T15:26:13;13.90;71.30
10538;DHT22;5317;49.048;8.468;2022-11-14T15:28:43;13.90;71.50
10538;DHT22;5317;49.048;8.468;2022-11-14T15:31:19;13.90;71.00
10538;DHT22;5317;49.048;8.468;2022-11-14T15:34:04;13.80;71.40
10538;DHT22;5317;49.048;8.468;2022-11-14T15:37:06;13.80;71.90
10538;DHT22;5317;49.048;8.468;2022-11-14T15:39:49;13.70;72.40
10538;DHT22;5317;49.048;8.468;2022-11-14T15:42:19;13.70;72.30
10538;DHT22;5317;49.048;8.468;2022-11-14T15:44:52;13.70;72.40
10538;DHT22;5317;49.048;8.468;2022-11-14T15:47:22;13.60;72.50
10538;DHT22;5317;49.048;8.468;2022-11-14T15:49:56;13.60;72.40
10538;DHT22;5317;49.048;8.468;2022-11-14T15:52:31;13.50;72.30
10538;DHT22;5317;49.048;8.468;2022-11-14T15:55:03;13.40;73.40
10538;DHT22;5317;49.048;8.468;2022-11-14T15:57:37;13.40;72.70
10538;DHT22;5317;49.048;8.468;2022-11-14T16:00:05;13.30;72.60
10538;DHT22;5317;49.048;8.468;2022-11-14T16:02:42;13.30;72.80
10538;DHT22;5317;49.048;8.468;2022-11-14T16:05:13;13.20;72.90
10538;DHT22;5317;49.048;8.468;2022-11-14T16:07:43;13.20;73.20
10538;DHT22;5317;49.048;8.468;2022-11-14T16:10:13;13.10;73.90
10538;DHT22;5317;49.048;8.468;2022-11-14T16:12:42;13.10;73.30
10538;DHT22;5317;49.048;8.468;2022-11-14T16:15:09;13.00;73.50
10538;DHT22;5317;49.048;8.468;2022-11-14T16:17:39;13.00;73.90
10538;DHT22;5317;49.048;8.468;2022-11-14T16:20:14;12.90;74.00
10538;DHT22;5317;49.048;8.468;2022-11-14T16:22:45;12.90;74.20
10538;DHT22;5317;49.048;8.468;2022-11-14T16:25:16;12.80;74.20
10538;DHT22;5317;49.048;8.468;2022-11-14T16:27:45;12.80;75.20
10538;DHT22;5317;49.048;8.468;2022-11-14T16:30:13;12.70;74.40
10538;DHT22;5317;49.048;8.468;2022-11-14T16:32:42;12.70;74.50
10538;DHT22;5317;49.048;8.468;2022-11-14T16:35:12;12.60;74.60
10538;DHT22;5317;49.048;8.468;2022-11-14T16:37:40;12.60;74.70
10538;DHT22;5317;49.048;8.468;2022-11-14T16:40:13;12.60;74.70